createdAt,value
2022-10-08T00:00:58.610Z,94576.59
2022-10-08T00:03:28.479Z,94579.22
2022-10-08T00:05:56.278Z,94576.59
2022-10-08T00:08:23.651Z,94574.75
2022-10-08T00:10:58.669Z,94574.75
2022-10-08T00:13:26.878Z,94579.53
2022-10-08T00:15:53.677Z,94576.59
2022-10-08T00:18:21.543Z,94576.59
2022-10-08T00:20:48.338Z,94561.50
2022-10-08T00:23:15.999Z,94571.84
2022-10-08T00:25:44.119Z,94575.22
2022-10-08T00:28:13.574Z,94575.22
2022-10-08T00:30:41.467Z,94571.38
2022-10-08T00:33:08.804Z,94562.69
2022-10-08T00:35:39.147Z,94567.50
2022-10-08T00:38:07.446Z,94564.69
2022-10-08T00:40:44.301Z,94562.69
2022-10-08T00:43:15.794Z,94573.75
2022-10-08T00:45:47.861Z,94571.44
2022-10-08T00:48:25.482Z,94562.03
2022-10-08T00:50:52.238Z,94553.25
2022-10-08T00:53:18.692Z,94557.88
2022-10-08T00:55:45.052Z,94554.94
2022-10-08T00:58:17.015Z,94552.94
2022-10-08T01:00:44.317Z,94555.41
2022-10-08T01:03:10.993Z,94553.59
2022-10-08T01:06:20.566Z,94557.75
2022-10-08T01:09:04.885Z,94552.22
2022-10-08T01:11:54.532Z,94546.97
2022-10-08T01:14:32.792Z,94548.84
2022-10-08T01:17:20.225Z,94550.69
2022-10-08T01:20:18.230Z,94540.50
2022-10-08T01:23:14.215Z,94538.66
2022-10-08T01:25:55.785Z,94542.31
2022-10-08T01:28:25.066Z,94533.72
2022-10-08T01:31:15.204Z,94534.47
2022-10-08T01:33:48.049Z,94537.88
2022-10-08T01:36:15.798Z,94530.34
2022-10-08T01:38:45.777Z,94525.09
2022-10-08T01:41:17.388Z,94526.63
2022-10-08T01:43:49.224Z,94529.25
2022-10-08T01:46:26.941Z,94526.34
2022-10-08T01:48:57.946Z,94518.50
2022-10-08T01:51:32.419Z,94519.53
2022-10-08T01:54:03.232Z,94519.25
2022-10-08T01:56:33.026Z,94518.78
2022-10-08T01:59:07.018Z,94516.00
2022-10-08T02:01:58.966Z,94516.78
2022-10-08T02:04:33.547Z,94517.84
2022-10-08T02:07:21.021Z,94517.38
2022-10-08T02:09:53.557Z,94526.28
2022-10-08T02:12:23.086Z,94526.88
2022-10-08T02:14:52.987Z,94526.88
2022-10-08T02:17:35.765Z,94520.13
2022-10-08T02:20:23.083Z,94515.94
2022-10-08T02:22:59.276Z,94523.00
2022-10-08T02:25:36.944Z,94520.72
2022-10-08T02:28:10.573Z,94523.91
2022-10-08T02:30:44.287Z,94520.34
2022-10-08T02:33:16.190Z,94520.00
2022-10-08T02:35:49.487Z,94522.53
2022-10-08T02:38:23.485Z,94521.88
2022-10-08T02:40:54.612Z,94526.34
2022-10-08T02:43:26.500Z,94520.34
2022-10-08T02:46:01.364Z,94519.75
2022-10-08T02:48:33.602Z,94513.44
2022-10-08T02:51:06.116Z,94497.97
2022-10-08T02:53:36.052Z,94510.38
2022-10-08T02:56:08.246Z,94502.03
2022-10-08T02:58:35.002Z,94509.41
2022-10-08T03:01:12.277Z,94510.31
2022-10-08T03:03:46.387Z,94515.22
2022-10-08T03:06:14.682Z,94510.13
2022-10-08T03:08:46.334Z,94511.06
2022-10-08T03:11:13.708Z,94511.06
2022-10-08T03:13:44.899Z,94517.56
2022-10-08T03:16:14.251Z,94517.56
2022-10-08T03:18:41.428Z,94516.78
2022-10-08T03:21:10.608Z,94523.53
2022-10-08T03:23:36.944Z,94523.72
2022-10-08T03:26:03.330Z,94532.53
2022-10-08T03:28:29.802Z,94522.53
2022-10-08T03:30:56.332Z,94520.53
2022-10-08T03:33:22.972Z,94537.47
2022-10-08T03:35:49.354Z,94539.03
2022-10-08T03:38:16.477Z,94527.59
2022-10-08T03:40:43.969Z,94534.19
2022-10-08T03:43:10.379Z,94543.28
2022-10-08T03:45:36.780Z,94545.13
2022-10-08T03:48:03.218Z,94541.63
2022-10-08T03:50:29.576Z,94542.88
2022-10-08T03:52:56.013Z,94544.59
2022-10-08T03:55:22.347Z,94543.44
2022-10-08T03:57:48.932Z,94545.91
2022-10-08T04:00:15.433Z,94545.00
2022-10-08T04:02:41.874Z,94541.53
2022-10-08T04:05:08.585Z,94544.59
2022-10-08T04:07:34.989Z,94538.78
2022-10-08T04:10:01.391Z,94547.09
2022-10-08T04:12:28.877Z,94547.56
2022-10-08T04:14:55.240Z,94542.31
2022-10-08T04:17:21.607Z,94546.50
2022-10-08T04:19:47.978Z,94549.59
2022-10-08T04:22:14.320Z,94545.91
2022-10-08T04:24:40.676Z,94529.88
2022-10-08T04:27:07.070Z,94542.69
2022-10-08T04:29:33.435Z,94536.88
2022-10-08T04:31:59.808Z,94541.00
2022-10-08T04:34:26.166Z,94537.66
2022-10-08T04:36:52.507Z,94538.41
2022-10-08T04:39:18.880Z,94535.78
2022-10-08T04:41:45.250Z,94531.63
2022-10-08T04:44:11.602Z,94534.25
2022-10-08T04:46:38.108Z,94542.88
2022-10-08T04:49:04.623Z,94545.78
2022-10-08T04:51:30.989Z,94538.06
2022-10-08T04:53:58.225Z,94541.59
2022-10-08T04:56:27.282Z,94541.41
2022-10-08T04:58:57.097Z,94554.00
2022-10-08T05:01:24.872Z,94550.16
2022-10-08T05:03:54.470Z,94552.00
2022-10-08T05:06:23.846Z,94547.81
2022-10-08T05:08:50.700Z,94553.84
2022-10-08T05:11:18.100Z,94549.97
2022-10-08T05:13:49.893Z,94554.13
2022-10-08T05:16:18.117Z,94553.38
2022-10-08T05:18:45.436Z,94553.84
2022-10-08T05:21:17.325Z,94558.09
2022-10-08T05:23:44.343Z,94562.75
2022-10-08T05:26:53.149Z,94562.75
2022-10-08T05:29:12.240Z,94559.38
2022-10-08T05:31:38.784Z,94555.31
2022-10-08T05:34:05.707Z,94558.41
2022-10-08T05:36:33.304Z,94558.41
2022-10-08T05:39:01.552Z,94565.19
2022-10-08T05:41:30.896Z,94561.50
2022-10-08T05:43:58.630Z,94567.81
2022-10-08T05:46:27.284Z,94571.97
2022-10-08T05:48:55.430Z,94567.81
2022-10-08T05:51:22.484Z,94575.94
2022-10-08T05:53:51.327Z,94585.47
2022-10-08T05:56:20.678Z,94585.88
2022-10-08T05:58:48.241Z,94589.19
2022-10-08T06:01:17.152Z,94594.56
2022-10-08T06:03:43.842Z,94590.97
2022-10-08T06:06:11.563Z,94594.47
2022-10-08T06:08:38.326Z,94600.47
2022-10-08T06:11:06.024Z,94603.56
2022-10-08T06:13:32.641Z,94598.81
2022-10-08T06:16:02.162Z,94601.44
2022-10-08T06:18:31.816Z,94607.06
2022-10-08T06:21:03.237Z,94605.84
2022-10-08T06:23:29.590Z,94604.66
2022-10-08T06:25:56.010Z,94608.72
2022-10-08T06:28:22.491Z,94614.94
2022-10-08T06:30:48.893Z,94615.88
2022-10-08T06:33:16.786Z,94622.66
2022-10-08T06:35:43.136Z,94621.56
2022-10-08T06:38:09.560Z,94624.38
2022-10-08T06:40:41.864Z,94631.66
2022-10-08T06:43:17.262Z,94629.22
2022-10-08T06:45:45.185Z,94626.00
2022-10-08T06:48:13.131Z,94627.72
2022-10-08T06:50:42.549Z,94633.44
2022-10-08T06:53:11.399Z,94633.63
2022-10-08T06:55:38.140Z,94640.28
2022-10-08T06:58:05.504Z,94636.47
2022-10-08T07:00:32.458Z,94652.22
2022-10-08T07:02:58.897Z,94659.69
2022-10-08T07:05:25.288Z,94648.78
2022-10-08T07:07:51.658Z,94652.81
2022-10-08T07:10:18.652Z,94657.97
2022-10-08T07:12:45.455Z,94657.06
2022-10-08T07:15:12.474Z,94662.78
2022-10-08T07:17:38.821Z,94662.19
2022-10-08T07:20:05.915Z,94662.66
2022-10-08T07:22:32.265Z,94668.25
2022-10-08T07:24:58.729Z,94669.38
2022-10-08T07:27:25.077Z,94672.34
2022-10-08T07:29:51.411Z,94680.38
2022-10-08T07:32:17.846Z,94679.16
2022-10-08T07:34:44.290Z,94681.19
2022-10-08T07:37:10.708Z,94681.66
2022-10-08T07:39:37.095Z,94684.72
2022-10-08T07:42:03.611Z,94685.50
2022-10-08T07:44:30.026Z,94677.22
2022-10-08T07:46:56.510Z,94682.50
2022-10-08T07:49:22.938Z,94678.03
2022-10-08T07:51:49.383Z,94687.47
2022-10-08T07:54:18.049Z,94683.59
2022-10-08T07:56:45.264Z,94683.28
2022-10-08T07:59:14.965Z,94685.91
2022-10-08T08:01:42.559Z,94687.78
2022-10-08T08:04:10.444Z,94688.38
2022-10-08T08:06:43.114Z,94689.00
2022-10-08T08:09:10.439Z,94681.72
2022-10-08T08:11:37.258Z,94686.81
2022-10-08T08:14:03.836Z,94698.88
2022-10-08T08:16:30.334Z,94693.13
2022-10-08T08:19:00.361Z,94701.78
2022-10-08T08:21:29.594Z,94710.44
2022-10-08T08:23:57.466Z,94706.75
2022-10-08T08:26:30.047Z,94710.75
2022-10-08T08:28:58.529Z,94700.38
2022-10-08T08:31:36.451Z,94709.94
2022-10-08T08:34:06.407Z,94701.94
2022-10-08T08:36:36.891Z,94705.53
2022-10-08T08:39:04.543Z,94702.59
2022-10-08T08:41:49.026Z,94711.28
2022-10-08T08:44:22.187Z,94715.28
2022-10-08T08:47:11.409Z,94718.09
2022-10-08T08:49:52.046Z,94713.63
2022-10-08T08:52:22.971Z,94718.56
2022-10-08T08:54:51.176Z,94717.63
2022-10-08T08:57:38.039Z,94726.25
2022-10-08T09:00:17.625Z,94725.16
2022-10-08T09:02:57.823Z,94729.44
2022-10-08T09:05:28.260Z,94730.03
2022-10-08T09:08:05.918Z,94728.84
2022-10-08T09:10:41.074Z,94731.63
2022-10-08T09:13:17.678Z,94732.41
2022-10-08T09:15:45.291Z,94738.91
2022-10-08T09:18:14.377Z,94737.34
2022-10-08T09:20:41.254Z,94736.41
2022-10-08T09:23:18.959Z,94748.44
2022-10-08T09:26:00.515Z,94744.63
2022-10-08T09:28:46.483Z,94735.66
2022-10-08T09:31:45.154Z,94732.75
2022-10-08T09:34:13.170Z,94733.22
2022-10-08T09:36:43.943Z,94734.44
2022-10-08T09:39:18.398Z,94732.00
2022-10-08T09:41:46.899Z,94728.94
2022-10-08T09:44:19.819Z,94729.91
2022-10-08T09:46:47.466Z,94733.16
2022-10-08T09:49:35.209Z,94738.28
2022-10-08T09:52:22.186Z,94734.44
2022-10-08T09:54:53.312Z,94737.56
2022-10-08T09:57:21.784Z,94737.25
2022-10-08T09:59:55.972Z,94738.28
2022-10-08T10:02:38.562Z,94739.84
2022-10-08T10:05:23.372Z,94746.91
2022-10-08T10:07:50.712Z,94745.50
2022-10-08T10:10:25.785Z,94746.38
2022-10-08T10:12:58.024Z,94749.03
2022-10-08T10:15:33.427Z,94743.59
2022-10-08T10:18:04.692Z,94754.56
2022-10-08T10:20:41.345Z,94752.19
2022-10-08T10:23:26.203Z,94756.78
2022-10-08T10:25:58.766Z,94755.06
2022-10-08T10:28:50.936Z,94743.97
2022-10-08T10:31:27.251Z,94741.81
2022-10-08T10:34:02.156Z,94745.41
2022-10-08T10:36:35.476Z,94737.69
2022-10-08T10:39:30.042Z,94740.28
2022-10-08T10:42:26.479Z,94741.41
2022-10-08T10:44:56.072Z,94746.03
2022-10-08T10:47:28.317Z,94732.16
2022-10-08T10:50:00.274Z,94735.34
2022-10-08T10:52:39.512Z,94735.09
2022-10-08T10:55:23.956Z,94733.38
2022-10-08T10:58:07.319Z,94728.59
2022-10-08T11:00:52.347Z,94730.28
2022-10-08T11:03:24.814Z,94730.06
2022-10-08T11:06:16.076Z,94735.50
2022-10-08T11:08:55.286Z,94738.59
2022-10-08T11:11:45.232Z,94741.56
2022-10-08T11:14:23.777Z,94739.72
2022-10-08T11:17:05.158Z,94738.94
2022-10-08T11:20:08.066Z,94743.13
2022-10-08T11:22:39.416Z,94735.88
2022-10-08T11:25:26.144Z,94737.88
2022-10-08T11:28:20.222Z,94746.53
2022-10-08T11:31:06.859Z,94745.31
2022-10-08T11:33:34.299Z,94744.38
2022-10-08T11:36:35.294Z,94733.56
2022-10-08T11:39:13.296Z,94736.97
2022-10-08T11:41:59.640Z,94743.75
2022-10-08T11:44:26.773Z,94734.47
2022-10-08T11:46:53.278Z,94734.31
2022-10-08T11:49:19.625Z,94740.16
2022-10-08T11:51:51.928Z,94743.00
2022-10-08T11:54:32.077Z,94739.00
2022-10-08T11:57:21.360Z,94740.59
2022-10-08T12:00:27.099Z,94733.81
2022-10-08T12:02:55.399Z,94740.03
2022-10-08T12:05:21.789Z,94734.50
2022-10-08T12:07:57.485Z,94733.88
2022-10-08T12:10:36.621Z,94732.13
2022-10-08T12:13:24.978Z,94739.03
2022-10-08T12:15:53.095Z,94732.06
2022-10-08T12:18:26.524Z,94734.44
2022-10-08T12:21:20.269Z,94723.72
2022-10-08T12:23:46.872Z,94722.78
2022-10-08T12:26:15.971Z,94725.03
2022-10-08T12:28:42.416Z,94714.19
2022-10-08T12:31:27.976Z,94725.09
2022-10-08T12:34:03.457Z,94724.56
2022-10-08T12:37:02.667Z,94720.16
2022-10-08T12:39:36.671Z,94727.31
2022-10-08T12:42:08.958Z,94724.16
2022-10-08T12:44:35.403Z,94726.44
2022-10-08T12:47:31.123Z,94721.94
2022-10-08T12:50:12.868Z,94735.53
2022-10-08T12:52:39.344Z,94729.03
2022-10-08T12:55:06.784Z,94732.78
2022-10-08T12:57:36.587Z,94735.91
2022-10-08T13:00:08.563Z,94731.75
2022-10-08T13:02:41.016Z,94726.31
2022-10-08T13:05:30.705Z,94736.53
2022-10-08T13:07:57.916Z,94741.88
2022-10-08T13:10:28.184Z,94748.28
2022-10-08T13:13:06.116Z,94746.19
2022-10-08T13:15:34.513Z,94739.22
2022-10-08T13:18:20.564Z,94742.41
2022-10-08T13:21:03.827Z,94744.06
2022-10-08T13:23:35.793Z,94746.88
2022-10-08T13:26:02.789Z,94740.34
2022-10-08T13:28:58.564Z,94747.81
2022-10-08T13:31:23.430Z,94745.56
2022-10-08T13:33:50.063Z,94752.06
2022-10-08T13:36:23.273Z,94752.25
2022-10-08T13:38:49.992Z,94747.50
2022-10-08T13:41:25.088Z,94750.78
2022-10-08T13:43:51.476Z,94749.09
2022-10-08T13:46:17.888Z,94748.69
2022-10-08T13:48:44.893Z,94753.19
2022-10-08T13:51:11.653Z,94750.50
2022-10-08T13:53:40.994Z,94745.22
2022-10-08T13:56:07.583Z,94758.53
2022-10-08T13:58:33.929Z,94750.88
2022-10-08T14:01:00.315Z,94750.66
2022-10-08T14:03:26.723Z,94750.16
2022-10-08T14:05:53.188Z,94753.75
2022-10-08T14:08:25.025Z,94751.78
2022-10-08T14:10:57.555Z,94760.78
2022-10-08T14:13:25.164Z,94758.41
2022-10-08T14:15:51.792Z,94756.63
2022-10-08T14:18:18.225Z,94754.50
2022-10-08T14:20:44.706Z,94746.25
2022-10-08T14:23:14.149Z,94749.00
2022-10-08T14:25:40.543Z,94755.53
2022-10-08T14:28:06.955Z,94754.00
2022-10-08T14:30:33.402Z,94744.34
2022-10-08T14:32:59.749Z,94748.00
2022-10-08T14:35:26.228Z,94743.28
2022-10-08T14:37:52.605Z,94747.72
2022-10-08T14:40:21.579Z,94734.59
2022-10-08T14:42:48.586Z,94732.72
2022-10-08T14:45:15.322Z,94743.81
2022-10-08T14:47:42.160Z,94742.38
2022-10-08T14:50:08.986Z,94744.19
2022-10-08T14:52:41.705Z,94750.94
2022-10-08T14:55:11.971Z,94746.25
2022-10-08T14:57:38.432Z,94752.50
2022-10-08T15:00:05.943Z,94740.25
2022-10-08T15:02:34.162Z,94738.56
2022-10-08T15:05:01.635Z,94736.28
2022-10-08T15:07:28.862Z,94734.75
2022-10-08T15:09:55.231Z,94729.97
2022-10-08T15:12:21.644Z,94730.66
2022-10-08T15:14:48.067Z,94734.72
2022-10-08T15:17:14.461Z,94728.53
2022-10-08T15:19:41.028Z,94735.53
2022-10-08T15:22:07.457Z,94746.09
2022-10-08T15:24:34.267Z,94739.44
2022-10-08T15:27:01.165Z,94738.00
2022-10-08T15:29:27.582Z,94726.53
2022-10-08T15:31:54.031Z,94742.53
2022-10-08T15:34:20.913Z,94738.47
2022-10-08T15:36:47.567Z,94732.94
2022-10-08T15:39:16.728Z,94746.78
2022-10-08T15:41:49.023Z,94737.09
2022-10-08T15:44:18.084Z,94748.34
2022-10-08T15:46:45.398Z,94752.50
2022-10-08T15:49:12.147Z,94752.53
2022-10-08T15:51:38.594Z,94745.63
2022-10-08T15:54:05.217Z,94756.59
2022-10-08T15:56:31.702Z,94760.22
2022-10-08T15:58:59.496Z,94766.44
2022-10-08T16:01:26.654Z,94762.19
2022-10-08T16:03:54.620Z,94764.00
2022-10-08T16:06:24.176Z,94768.38
2022-10-08T16:08:51.333Z,94769.13
2022-10-08T16:11:19.647Z,94772.34
2022-10-08T16:13:49.081Z,94779.13
2022-10-08T16:16:17.878Z,94778.53
2022-10-08T16:18:45.648Z,94787.16
2022-10-08T16:21:13.237Z,94791.66
2022-10-08T16:23:39.740Z,94799.59
2022-10-08T16:26:10.670Z,94794.53
2022-10-08T16:28:38.582Z,94800.34
2022-10-08T16:31:06.308Z,94795.78
2022-10-08T16:33:32.781Z,94801.19
2022-10-08T16:36:05.938Z,94809.09
2022-10-08T16:38:33.456Z,94811.63
2022-10-08T16:41:20.688Z,94814.84
2022-10-08T16:43:51.871Z,94820.97
2022-10-08T16:46:19.930Z,94827.28
2022-10-08T16:49:06.181Z,94830.25
2022-10-08T16:51:35.905Z,94830.31
2022-10-08T16:54:04.127Z,94837.97
2022-10-08T16:56:33.220Z,94835.25
2022-10-08T16:59:07.917Z,94837.75
2022-10-08T17:01:35.496Z,94840.88
2022-10-08T17:04:05.839Z,94844.78
2022-10-08T17:06:33.264Z,94854.38
2022-10-08T17:08:59.685Z,94852.88
2022-10-08T17:11:26.186Z,94855.06
2022-10-08T17:13:55.735Z,94863.25
2022-10-08T17:16:24.007Z,94868.78
2022-10-08T17:18:52.782Z,94868.59
2022-10-08T17:21:19.683Z,94873.66
2022-10-08T17:23:46.466Z,94876.09
2022-10-08T17:26:16.151Z,94885.75
2022-10-08T17:28:45.196Z,94885.75
2022-10-08T17:31:14.644Z,94885.09
2022-10-08T17:33:41.796Z,94891.88
2022-10-08T17:36:17.616Z,94888.19
2022-10-08T17:38:45.620Z,94888.44
2022-10-08T17:41:23.644Z,94896.44
2022-10-08T17:43:51.115Z,94899.16
2022-10-08T17:46:20.343Z,94913.59
2022-10-08T17:48:47.036Z,94907.78
2022-10-08T17:51:16.476Z,94910.19
2022-10-08T17:53:43.773Z,94908.34
2022-10-08T17:56:12.469Z,94912.25
2022-10-08T17:58:39.619Z,94909.13
2022-10-08T18:01:10.118Z,94912.31
2022-10-08T18:03:37.733Z,94920.72
2022-10-08T18:06:05.302Z,94916.59
2022-10-08T18:08:31.995Z,94930.69
2022-10-08T18:11:02.663Z,94930.19
2022-10-08T18:13:29.084Z,94929.19
2022-10-08T18:15:55.675Z,94936.53
2022-10-08T18:18:22.112Z,94938.72
2022-10-08T18:20:56.969Z,94949.72
2022-10-08T18:23:24.482Z,94929.50
2022-10-08T18:25:53.879Z,94948.00
2022-10-08T18:28:22.046Z,94946.22
2022-10-08T18:30:48.648Z,94955.97
2022-10-08T18:33:15.597Z,94949.84
2022-10-08T18:35:41.988Z,94963.16
2022-10-08T18:38:08.345Z,94970.00
2022-10-08T18:40:34.816Z,94961.16
2022-10-08T18:43:01.199Z,94965.72
2022-10-08T18:45:27.714Z,94962.91
2022-10-08T18:47:54.106Z,94973.44
2022-10-08T18:50:20.482Z,94969.09
2022-10-08T18:52:47.076Z,94975.44
2022-10-08T18:55:14.123Z,94978.59
2022-10-08T18:57:40.820Z,94984.06
2022-10-08T19:00:07.906Z,94985.34
2022-10-08T19:02:34.453Z,94985.09
2022-10-08T19:05:00.998Z,94984.31
2022-10-08T19:07:27.419Z,94979.09
2022-10-08T19:09:53.843Z,94983.03
2022-10-08T19:12:20.207Z,94991.09
2022-10-08T19:14:47.228Z,94992.69
2022-10-08T19:17:13.606Z,95001.78
2022-10-08T19:19:39.977Z,94998.91
2022-10-08T19:22:06.381Z,95000.19
2022-10-08T19:24:32.755Z,95005.91
2022-10-08T19:26:59.183Z,94996.53
2022-10-08T19:29:29.061Z,95008.53
2022-10-08T19:31:56.313Z,95008.03
2022-10-08T19:34:24.908Z,95010.63
2022-10-08T19:36:52.130Z,95005.91
2022-10-08T19:39:22.416Z,95023.13
2022-10-08T19:41:49.620Z,95022.06
2022-10-08T19:44:17.141Z,95021.53
2022-10-08T19:46:44.161Z,95030.38
2022-10-08T19:49:11.024Z,95025.16
2022-10-08T19:51:38.341Z,95036.13
2022-10-08T19:54:05.750Z,95041.66
2022-10-08T19:56:32.338Z,95044.28
2022-10-08T19:58:59.126Z,95046.16
2022-10-08T20:01:35.132Z,95052.16
2022-10-08T20:04:03.817Z,95047.22
2022-10-08T20:06:32.311Z,95052.97
2022-10-08T20:09:01.577Z,95053.03
2022-10-08T20:11:29.750Z,95052.03
2022-10-08T20:13:56.965Z,95050.53
2022-10-08T20:16:26.172Z,95053.69
2022-10-08T20:18:55.757Z,95066.72
2022-10-08T20:21:22.602Z,95066.97
2022-10-08T20:23:49.426Z,95062.78
2022-10-08T20:26:22.999Z,95062.56
2022-10-08T20:28:53.033Z,95065.22
2022-10-08T20:31:22.812Z,95072.00
2022-10-08T20:33:58.829Z,95075.13
2022-10-08T20:36:25.280Z,95071.75
2022-10-08T20:38:52.078Z,95076.19
2022-10-08T20:41:18.849Z,95073.06
2022-10-08T20:43:45.233Z,95071.00
2022-10-08T20:46:13.885Z,95075.19
2022-10-08T20:48:42.202Z,95072.59
2022-10-08T20:51:20.039Z,95071.06
2022-10-08T20:53:52.673Z,95075.75
2022-10-08T20:56:20.081Z,95078.13
2022-10-08T20:58:46.663Z,95077.34
2022-10-08T21:01:24.382Z,95079.16
2022-10-08T21:03:51.553Z,95079.44
2022-10-08T21:06:20.489Z,95069.78
2022-10-08T21:08:49.064Z,95072.09
2022-10-08T21:11:18.425Z,95072.59
2022-10-08T21:13:45.499Z,95077.25
2022-10-08T21:16:13.753Z,95086.59
2022-10-08T21:18:41.084Z,95084.56
2022-10-08T21:21:12.190Z,95083.03
2022-10-08T21:23:39.277Z,95078.38
2022-10-08T21:26:06.739Z,95080.47
2022-10-08T21:28:33.473Z,95081.53
2022-10-08T21:31:03.957Z,95085.47
2022-10-08T21:33:33.838Z,95082.09
2022-10-08T21:36:00.244Z,95077.91
2022-10-08T21:38:26.608Z,95082.34
2022-10-08T21:40:57.575Z,95086.22
2022-10-08T21:43:24.498Z,95086.22
2022-10-08T21:45:59.484Z,95082.88
2022-10-08T21:48:28.146Z,95088.06
2022-10-08T21:51:07.048Z,95082.84
2022-10-08T21:53:35.833Z,95082.59
2022-10-08T21:56:05.430Z,95083.13
2022-10-08T21:58:36.341Z,95089.91
2022-10-08T22:01:03.397Z,95084.94
2022-10-08T22:03:29.926Z,95081.84
2022-10-08T22:05:58.310Z,95089.88
2022-10-08T22:08:26.478Z,95093.28
2022-10-08T22:10:53.416Z,95094.59
2022-10-08T22:13:20.062Z,95094.59
2022-10-08T22:15:54.393Z,95093.00
2022-10-08T22:18:22.326Z,95089.38
2022-10-08T22:20:48.724Z,95095.59
2022-10-08T22:23:15.715Z,95088.31
2022-10-08T22:25:42.494Z,95089.38
2022-10-08T22:28:09.521Z,95090.41
2022-10-08T22:30:36.840Z,95085.72
2022-10-08T22:33:03.925Z,95081.56
2022-10-08T22:35:32.589Z,95079.50
2022-10-08T22:37:59.874Z,95088.84
2022-10-08T22:40:26.637Z,95086.50
2022-10-08T22:42:53.057Z,95084.19
2022-10-08T22:45:19.440Z,95083.63
2022-10-08T22:47:46.235Z,95083.91
2022-10-08T22:50:12.679Z,95082.84
2022-10-08T22:52:39.221Z,95087.00
2022-10-08T22:55:05.705Z,95083.63
2022-10-08T22:57:32.107Z,95079.72
2022-10-08T22:59:58.449Z,95081.03
2022-10-08T23:02:24.857Z,95080.25
2022-10-08T23:04:51.265Z,95085.19
2022-10-08T23:07:17.650Z,95087.78
2022-10-08T23:09:44.002Z,95081.00
2022-10-08T23:12:10.473Z,95083.88
2022-10-08T23:14:36.822Z,95076.84
2022-10-08T23:17:03.410Z,95076.31
2022-10-08T23:19:29.815Z,95072.97
2022-10-08T23:21:56.171Z,95075.81
2022-10-08T23:24:22.616Z,95073.19
2022-10-08T23:26:49.762Z,95072.69
2022-10-08T23:29:16.130Z,95074.78
2022-10-08T23:31:42.542Z,95078.44
2022-10-08T23:34:09.088Z,95072.44
2022-10-08T23:36:41.240Z,95076.09
2022-10-08T23:39:11.856Z,95068.81
2022-10-08T23:41:38.266Z,95070.13
2022-10-08T23:44:05.441Z,95071.16
2022-10-08T23:46:32.278Z,95074.03
2022-10-08T23:48:59.505Z,95074.28
2022-10-08T23:51:31.912Z,95072.47
2022-10-08T23:53:58.849Z,95077.69
2022-10-08T23:56:25.243Z,95074.03
2022-10-08T23:58:51.672Z,95074.28
